Time;durP1;ratioP1;P1;durP2;ratioP2;P2;SDS_P1;SDS_P2;PMS_P1;PMS_P2;Temp;Humidity;BMP_temperature;BMP_pressure;BME280_temperature;BME280_humidity;BME280_pressure;Samples;Min_cycle;Max_cycle;Signal;HPM_P1;HPM_P2
2021/03/18 00:01:24;;;;;;;;;;;;;;;;;;4947708;29;20391;-68
2021/03/18 00:03:50;;;;;;;;;;;;;;;;;;4948067;28;19938;-68
2021/03/18 00:06:16;;;;;;;;;;;;;;;;;;4945241;29;19933;-69
2021/03/18 00:08:43;;;;;;;;;;;;;;;;;;4953451;28;20318;-68
2021/03/18 00:11:09;;;;;;;;;;;;;;;;;;4947645;28;19942;-68
2021/03/18 00:13:36;;;;;;;;;;;;;;;;;;4944179;28;20030;-67
2021/03/18 00:16:02;;;;;;;;;;;;;;;;;;4951638;28;19927;-67
2021/03/18 00:18:29;;;;;;;;;;;;;;;;;;4952903;28;19926;-68
2021/03/18 00:20:55;;;;;;;;;;;;;;;;;;4949975;28;19927;-68
2021/03/18 00:23:22;;;;;;;;;;;;;;;;;;4948788;28;20030;-67
2021/03/18 00:25:48;;;;;;;;;;;;;;;;;;4950228;28;20438;-67
2021/03/18 00:28:15;;;;;;;;;;;;;;;;;;4944281;29;19927;-68
2021/03/18 00:30:41;;;;;;;;;;;;;;;;;;4949749;28;19935;-68
2021/03/18 00:33:08;;;;;;;;;;;;;;;;;;4946540;28;19974;-68
2021/03/18 00:35:34;;;;;;;;;;;;;;;;;;4951886;28;20352;-68
2021/03/18 00:38:01;;;;;;;;;;;;;;;;;;4948006;29;20399;-67
2021/03/18 00:40:27;;;;;;;;;;;;;;;;;;4948740;29;19926;-67
2021/03/18 00:42:54;;;;;;;;;;;;;;;;;;4939226;28;19935;-68
2021/03/18 00:45:20;;;;;;;;;;;;;;;;;;4952469;28;19926;-68
2021/03/18 00:47:46;;;;;;;;;;;;;;;;;;4950891;28;20391;-67
2021/03/18 00:50:13;;;;;;;;;;;;;;;;;;4950502;28;19927;-67
2021/03/18 00:52:39;;;;;;;;;;;;;;;;;;4949727;29;19970;-67
2021/03/18 00:55:06;;;;;;;;;;;;;;;;;;4950714;29;19933;-68
2021/03/18 00:57:32;;;;;;;;;;;;;;;;;;4950175;28;20272;-67
2021/03/18 00:59:59;;;;;;;;;;;;;;;;;;4946109;28;19926;-68
2021/03/18 01:02:25;;;;;;;;;;;;;;;;;;4950066;28;19926;-68
2021/03/18 01:04:52;;;;;;;;;;;;;;;;;;4951192;28;20383;-68
2021/03/18 01:07:18;;;;;;;;;;;;;;;;;;4942757;28;19926;-68
2021/03/18 01:09:45;;;;;;;;;;;;;;;;;;4947211;28;19930;-69
2021/03/18 01:12:11;;;;;;;;;;;;;;;;;;4952998;28;19938;-67
2021/03/18 01:14:38;;;;;;;;;;;;;;;;;;4943339;29;19927;-67
2021/03/18 01:17:04;;;;;;;;;;;;;;;;;;4952448;29;19982;-67
2021/03/18 01:19:31;;;;;;;;;;;;;;;;;;4950357;28;19930;-68
2021/03/18 01:21:57;;;;;;;;;;;;;;;;;;4948964;29;19933;-68
2021/03/18 01:24:23;;;;;;;;;;;;;;;;;;4945169;28;19930;-67
2021/03/18 01:26:50;;;;;;;;;;;;;;;;;;4938805;29;20347;-67
2021/03/18 01:29:16;;;;;;;;;;;;;;;;;;4950146;28;20011;-68
2021/03/18 01:31:43;;;;;;;;;;;;;;;;;;4951398;28;19942;-68
2021/03/18 01:34:09;;;;;;;;;;;;;;;;;;4950895;28;19960;-68
2021/03/18 01:36:36;;;;;;;;;;;;;;;;;;4952492;28;20379;-67
2021/03/18 01:39:02;;;;;;;;;;;;;;;;;;4951844;28;19998;-67
2021/03/18 01:41:29;;;;;;;;;;;;;;;;;;4947733;28;19927;-68
2021/03/18 01:43:55;;;;;;;;;;;;;;;;;;4946861;28;19926;-68
2021/03/18 01:46:22;;;;;;;;;;;;;;;;;;4947245;28;19934;-68
2021/03/18 01:48:48;;;;;;;;;;;;;;;;;;4944375;28;20474;-67
2021/03/18 01:51:15;;;;;;;;;;;;;;;;;;4952544;29;19941;-67
2021/03/18 01:53:41;;;;;;;;;;;;;;;;;;4948926;29;19937;-66
2021/03/18 01:56:08;;;;;;;;;;;;;;;;;;4954834;28;20170;-68
2021/03/18 01:58:34;;;;;;;;;;;;;;;;;;4953872;29;19950;-68
2021/03/18 02:01:01;;;;;;;;;;;;;;;;;;4949976;28;20021;-67
2021/03/18 02:03:27;;;;;;;;;;;;;;;;;;4954372;28;20414;-68
2021/03/18 02:05:54;;;;;;;;;;;;;;;;;;4956178;28;20269;-67
2021/03/18 02:08:20;;;;;;;;;;;;;;;;;;4955546;28;19926;-68
2021/03/18 02:10:47;;;;;;;;;;;;;;;;;;4955583;28;19934;-68
2021/03/18 02:13:13;;;;;;;;;;;;;;;;;;4945747;28;20013;-68
2021/03/18 02:15:40;;;;;;;;;;;;;;;;;;4955669;28;20462;-68
2021/03/18 02:18:06;;;;;;;;;;;;;;;;;;4953350;28;20291;-67
2021/03/18 02:20:33;;;;;;;;;;;;;;;;;;4952422;28;19981;-68
2021/03/18 02:22:59;;;;;;;;;;;;;;;;;;4947555;28;20399;-68
2021/03/18 02:25:25;;;;;;;;;;;;;;;;;;4955085;28;19926;-68
2021/03/18 02:27:52;;;;;;;;;;;;;;;;;;4949901;28;19926;-68
2021/03/18 02:30:18;;;;;;;;;;;;;;;;;;4949385;28;19926;-67
2021/03/18 02:32:45;;;;;;;;;;;;;;;;;;4947313;29;19927;-67
2021/03/18 02:35:11;;;;;;;;;;;;;;;;;;4949932;28;19933;-67
2021/03/18 02:37:38;;;;;;;;;;;;;;;;;;4951526;28;19934;-68
2021/03/18 02:40:04;;;;;;;;;;;;;;;;;;4952076;28;19927;-67
2021/03/18 02:42:31;;;;;;;;;;;;;;;;;;4950243;28;19937;-68
2021/03/18 02:44:57;;;;;;;;;;;;;;;;;;4949777;29;20348;-69
2021/03/18 02:47:24;;;;;;;;;;;;;;;;;;4949866;29;19926;-67
2021/03/18 02:49:50;;;;;;;;;;;;;;;;;;4949138;28;19934;-68
2021/03/18 02:52:17;;;;;;;;;;;;;;;;;;4947642;29;19926;-67
2021/03/18 02:54:43;;;;;;;;;;;;;;;;;;4946786;29;19926;-67
2021/03/18 02:57:10;;;;;;;;;;;;;;;;;;4951038;28;20387;-68
2021/03/18 02:59:36;;;;;;;;;;;;;;;;;;4950849;28;20327;-67
2021/03/18 03:02:03;;;;;;;;;;;;;;;;;;4951789;29;19927;-67
2021/03/18 03:04:29;;;;;;;;;;;;;;;;;;4945645;29;19957;-67
2021/03/18 03:06:55;;;;;;;;;;;;;;;;;;4946854;29;20379;-67
2021/03/18 03:09:22;;;;;;;;;;;;;;;;;;4953635;28;19938;-67
2021/03/18 03:11:48;;;;;;;;;;;;;;;;;;4953577;28;20379;-67
2021/03/18 03:14:15;;;;;;;;;;;;;;;;;;4948551;28;19933;-68
2021/03/18 03:16:41;;;;;;;;;;;;;;;;;;4949841;29;19926;-67
2021/03/18 03:19:08;;;;;;;;;;;;;;;;;;4953701;28;20409;-68
2021/03/18 03:21:34;;;;;;;;;;;;;;;;;;4955685;28;19927;-67
2021/03/18 03:24:01;;;;;;;;;;;;;;;;;;4954223;29;19993;-67
2021/03/18 03:26:27;;;;;;;;;;;;;;;;;;4944584;28;19934;-68
2021/03/18 03:28:54;;;;;;;;;;;;;;;;;;4943143;29;19958;-67
2021/03/18 03:31:20;;;;;;;;;;;;;;;;;;4947558;28;19926;-67
2021/03/18 03:33:46;;;;;;;;;;;;;;;;;;4953244;29;20343;-67
2021/03/18 03:36:13;;;;;;;;;;;;;;;;;;4950723;28;19970;-67
2021/03/18 03:38:39;;;;;;;;;;;;;;;;;;4954103;28;19933;-67
2021/03/18 03:41:06;;;;;;;;;;;;;;;;;;4950062;28;19958;-67
2021/03/18 03:43:32;;;;;;;;;;;;;;;;;;4953279;28;19926;-67
2021/03/18 03:45:59;;;;;;;;;;;;;;;;;;4941979;29;19938;-67
2021/03/18 03:48:26;;;;;;;;;;;;;;;;;;4952272;29;19934;-68
2021/03/18 03:50:53;;;;;;;;;;;;;;;;;;4971522;23;19930;-63
2021/03/18 03:53:19;;;;;;;;;;;;;;;;;;4965756;28;19927;-63
2021/03/18 03:55:46;;;;;;;;;;;;;;;;;;4953685;28;20014;-62
2021/03/18 03:58:12;;;;;;;;;;;;;;;;;;4952044;28;19927;-63
2021/03/18 04:00:39;;;;;;;;;;;;;;;;;;4958910;28;19927;-63
2021/03/18 04:03:06;;;;;;;;;;;;;;;;;;4965622;28;19927;-63
2021/03/18 04:05:33;;;;;;;;;;;;;;;;;;4964067;28;19938;-64
2021/03/18 04:07:59;;;;;;;;;;;;;;;;;;4956063;28;20422;-63
2021/03/18 04:10:25;;;;;;;;;;;;;;;;;;4961894;28;20305;-63
2021/03/18 04:12:52;;;;;;;;;;;;;;;;;;4956744;28;20306;-62
2021/03/18 04:15:19;;;;;;;;;;;;;;;;;;4958548;28;19933;-65
2021/03/18 04:17:45;;;;;;;;;;;;;;;;;;4963507;28;19926;-64
2021/03/18 04:20:12;;;;;;;;;;;;;;;;;;4955608;28;19926;-63
2021/03/18 04:22:38;;;;;;;;;;;;;;;;;;4955323;28;19926;-64
2021/03/18 04:25:05;;;;;;;;;;;;;;;;;;4962180;28;19984;-64
2021/03/18 04:27:31;;;;;;;;;;;;;;;;;;4964818;28;19926;-63
2021/03/18 04:29:58;;;;;;;;;;;;;;;;;;4955179;28;19943;-64
2021/03/18 04:32:24;;;;;;;;;;;;;;;;;;4961335;28;19930;-63
2021/03/18 04:34:51;;;;;;;;;;;;;;;;;;4960418;28;19977;-63
2021/03/18 04:37:17;;;;;;;;;;;;;;;;;;4946726;28;19933;-65
2021/03/18 04:39:44;;;;;;;;;;;;;;;;;;4955581;28;20013;-64
2021/03/18 04:42:10;;;;;;;;;;;;;;;;;;4957616;28;20457;-64
2021/03/18 04:44:36;;;;;;;;;;;;;;;;;;4960183;28;19926;-63
2021/03/18 04:47:03;;;;;;;;;;;;;;;;;;4967386;28;19927;-62
2021/03/18 04:49:29;;;;;;;;;;;;;;;;;;4965573;28;19953;-64
2021/03/18 04:51:56;;;;;;;;;;;;;;;;;;4968530;28;19927;-63
2021/03/18 04:54:23;;;;;;;;;;;;;;;;;;4963777;28;19934;-63
2021/03/18 04:56:49;;;;;;;;;;;;;;;;;;4965693;28;19973;-63
2021/03/18 04:59:16;;;;;;;;;;;;;;;;;;4975801;28;19981;-62
2021/03/18 05:01:42;;;;;;;;;;;;;;;;;;4966437;28;20397;-63
2021/03/18 05:04:09;;;;;;;;;;;;;;;;;;4959312;28;19981;-62
2021/03/18 05:06:35;;;;;;;;;;;;;;;;;;4952451;28;20279;-65
2021/03/18 05:09:02;;;;;;;;;;;;;;;;;;4949243;28;19927;-64
2021/03/18 05:11:28;;;;;;;;;;;;;;;;;;4961369;28;19969;-63
2021/03/18 05:13:54;;;;;;;;;;;;;;;;;;4963084;28;20383;-64
2021/03/18 05:16:21;;;;;;;;;;;;;;;;;;4947678;28;19930;-62
2021/03/18 05:18:47;;;;;;;;;;;;;;;;;;4964443;28;19932;-63
2021/03/18 05:21:14;;;;;;;;;;;;;;;;;;4967906;28;19932;-64
2021/03/18 05:23:40;;;;;;;;;;;;;;;;;;4963779;28;20219;-62
2021/03/18 05:26:07;;;;;;;;;;;;;;;;;;4960036;28;19927;-63
2021/03/18 05:28:33;;;;;;;;;;;;;;;;;;4964069;28;20283;-69
2021/03/18 05:31:01;;;;;;;;;;;;;;;;;;4956272;28;19974;-62
2021/03/18 05:33:27;;;;;;;;;;;;;;;;;;4962464;28;19983;-64
2021/03/18 05:35:54;;;;;;;;;;;;;;;;;;4970570;28;19933;-63
2021/03/18 05:38:20;;;;;;;;;;;;;;;;;;4965155;28;19933;-63
2021/03/18 05:40:47;;;;;;;;;;;;;;;;;;4956078;28;19933;-65
2021/03/18 05:43:13;;;;;;;;;;;;;;;;;;4959573;28;20058;-63
2021/03/18 05:45:40;;;;;;;;;;;;;;;;;;4955924;28;19935;-64
2021/03/18 05:48:06;;;;;;;;;;;;;;;;;;4969003;28;19926;-64
2021/03/18 05:50:33;;;;;;;;;;;;;;;;;;4957636;28;19939;-64
2021/03/18 05:52:59;;;;;;;;;;;;;;;;;;4962629;28;19948;-63
2021/03/18 05:55:26;;;;;;;;;;;;;;;;;;4962486;28;20412;-60
2021/03/18 05:57:52;;;;;;;;;;;;;;;;;;4968487;28;20032;-65
2021/03/18 06:00:19;;;;;;;;;;;;;;;;;;4963783;28;19973;-64
2021/03/18 06:02:45;;;;;;;;;;;;;;;;;;4968763;28;19926;-62
2021/03/18 06:05:12;;;;;;;;;;;;;;;;;;4959904;28;19926;-62
2021/03/18 06:07:38;;;;;;;;;;;;;;;;;;4960940;28;19926;-63
2021/03/18 06:10:05;;;;;;;;;;;;;;;;;;4964966;28;19981;-63
2021/03/18 06:12:31;;;;;;;;;;;;;;;;;;4958772;28;20412;-66
2021/03/18 06:14:57;;;;;;;;;;;;;;;;;;4960014;28;19948;-65
2021/03/18 06:17:24;;;;;;;;;;;;;;;;;;4961585;28;19931;-62
2021/03/18 06:19:50;;;;;;;;;;;;;;;;;;4955272;28;19937;-63
2021/03/18 06:22:17;;;;;;;;;;;;;;;;;;4960563;28;20011;-64
2021/03/18 06:24:43;;;;;;;;;;;;;;;;;;4963641;28;19926;-64
2021/03/18 06:27:10;;;;;;;;;;;;;;;;;;4955786;28;19927;-63
2021/03/18 06:29:36;;;;;;;;;;;;;;;;;;4962990;28;20301;-64
2021/03/18 06:32:03;;;;;;;;;;;;;;;;;;4955611;28;19930;-63
2021/03/18 06:34:29;;;;;;;;;;;;;;;;;;4962994;28;20033;-63
2021/03/18 06:36:56;;;;;;;;;;;;;;;;;;4958746;28;19930;-64
2021/03/18 06:39:22;;;;;;;;;;;;;;;;;;4967661;28;19935;-64
2021/03/18 06:41:49;;;;;;;;;;;;;;;;;;4955274;28;19926;-64
2021/03/18 06:44:15;;;;;;;;;;;;;;;;;;4959657;28;20433;-63
2021/03/18 06:46:41;;;;;;;;;;;;;;;;;;4958315;28;19926;-64
2021/03/18 06:49:08;;;;;;;;;;;;;;;;;;4961722;28;19996;-62
2021/03/18 06:51:34;;;;;;;;;;;;;;;;;;4964936;28;19926;-62
2021/03/18 06:54:01;;;;;;;;;;;;;;;;;;4954656;28;19927;-64
2021/03/18 06:56:27;;;;;;;;;;;;;;;;;;4959999;28;19927;-64
2021/03/18 06:58:54;;;;;;;;;;;;;;;;;;4959226;28;19926;-64
2021/03/18 07:01:20;;;;;;;;;;;;;;;;;;4956063;28;19930;-63
2021/03/18 07:03:46;;;;;;;;;;;;;;;;;;4958034;28;19926;-63
2021/03/18 07:06:13;;;;;;;;;;;;;;;;;;4966353;28;19930;-64
2021/03/18 07:08:39;;;;;;;;;;;;;;;;;;4960349;28;19933;-63
2021/03/18 07:11:06;;;;;;;;;;;;;;;;;;4955648;28;20302;-63
2021/03/18 07:13:32;;;;;;;;;;;;;;;;;;4954497;28;20587;-64
2021/03/18 07:15:59;;;;;;;;;;;;;;;;;;4954100;28;19998;-64
2021/03/18 07:18:25;;;;;;;;;;;;;;;;;;4954785;28;19931;-63
2021/03/18 07:20:51;;;;;;;;;;;;;;;;;;4949596;28;19926;-64
2021/03/18 07:23:18;;;;;;;;;;;;;;;;;;4958462;28;19984;-64
2021/03/18 07:25:44;;;;;;;;;;;;;;;;;;4953952;28;20387;-64
2021/03/18 07:28:14;;;;;;;;;;;;;;;;;;4954495;28;20021;-65
2021/03/18 07:30:40;;;;;;;;;;;;;;;;;;4955880;28;19930;-65
2021/03/18 07:33:07;;;;;;;;;;;;;;;;;;4954237;28;20009;-65
2021/03/18 07:35:33;;;;;;;;;;;;;;;;;;4948603;28;19933;-65
2021/03/18 07:38:00;;;;;;;;;;;;;;;;;;4952505;28;19933;-63
2021/03/18 07:40:26;;;;;;;;;;;;;;;;;;4952681;28;19926;-65
2021/03/18 07:42:53;;;;;;;;;;;;;;;;;;4957976;28;20279;-64
2021/03/18 07:45:19;;;;;;;;;;;;;;;;;;4947599;28;20015;-63
2021/03/18 07:47:45;;;;;;;;;;;;;;;;;;4950166;28;19990;-65
2021/03/18 07:50:12;;;;;;;;;;;;;;;;;;4954400;28;20438;-67
2021/03/18 07:52:40;;;;;;;;;;;;;;;;;;4952324;28;20185;-65
2021/03/18 07:55:07;;;;;;;;;;;;;;;;;;4951946;28;19934;-63
2021/03/18 07:57:33;;;;;;;;;;;;;;;;;;4952969;28;19931;-64
2021/03/18 08:00:00;;;;;;;;;;;;;;;;;;4951570;28;20314;-64
2021/03/18 08:02:26;;;;;;;;;;;;;;;;;;4953021;28;20134;-64
2021/03/18 08:04:52;;;;;;;;;;;;;;;;;;4959014;28;19984;-64
2021/03/18 08:07:19;;;;;;;;;;;;;;;;;;4954684;28;19951;-63
2021/03/18 08:09:45;;;;;;;;;;;;;;;;;;4951684;28;19927;-64
2021/03/18 08:12:12;;;;;;;;;;;;;;;;;;4947807;28;20168;-65
2021/03/18 08:14:38;;;;;;;;;;;;;;;;;;4953385;28;19926;-62
2021/03/18 08:17:05;;;;;;;;;;;;;;;;;;4967716;28;20111;-64
2021/03/18 08:19:31;;;;;;;;;;;;;;;;;;4969606;28;19955;-66
2021/03/18 08:21:58;;;;;;;;;;;;;;;;;;4963105;28;19942;-65
2021/03/18 08:24:24;;;;;;;;;;;;;;;;;;4960896;28;19931;-63
2021/03/18 08:26:51;;;;;;;;;;;;;;;;;;4960828;28;19992;-62
2021/03/18 08:29:17;;;;;;;;;;;;;;;;;;4954563;28;20298;-64
2021/03/18 08:31:44;;;;;;;;;;;;;;;;;;4955684;28;19935;-65
2021/03/18 08:34:10;;;;;;;;;;;;;;;;;;4954204;28;19934;-63
2021/03/18 08:36:37;;;;;;;;;;;;;;;;;;4958345;28;19926;-64
2021/03/18 08:39:03;;;;;;;;;;;;;;;;;;4959546;28;20049;-64
2021/03/18 08:41:30;;;;;;;;;;;;;;;;;;4964717;28;19943;-64
2021/03/18 08:43:56;;;;;;;;;;;;;;;;;;4949376;28;19961;-64
2021/03/18 08:46:23;;;;;;;;;;;;;;;;;;4952088;28;19977;-65
2021/03/18 08:48:49;;;;;;;;;;;;;;;;;;4963264;28;19933;-65
2021/03/18 08:51:15;;;;;;;;;;;;;;;;;;4961951;28;19945;-66
2021/03/18 08:53:42;;;;;;;;;;;;;;;;;;4952138;28;19927;-65
2021/03/18 08:56:09;;;;;;;;;;;;;;;;;;4946523;28;20390;-65
2021/03/18 08:58:35;;;;;;;;;;;;;;;;;;4960217;28;20323;-65
2021/03/18 09:01:02;;;;;;;;;;;;;;;;;;4960773;28;19941;-64
2021/03/18 09:03:28;;;;;;;;;;;;;;;;;;4951570;28;20414;-64
2021/03/18 09:05:55;;;;;;;;;;;;;;;;;;4951634;28;20423;-64
2021/03/18 09:08:22;;;;;;;;;;;;;;;;;;4953551;28;20017;-64
2021/03/18 09:10:48;;;;;;;;;;;;;;;;;;4953153;28;19973;-65
2021/03/18 09:13:15;;;;;;;;;;;;;;;;;;4951543;28;19950;-65
2021/03/18 09:15:42;;;;;;;;;;;;;;;;;;4950745;28;19933;-65
2021/03/18 09:18:08;;;;;;;;;;;;;;;;;;4947156;28;19930;-64
2021/03/18 09:20:35;;;;;;;;;;;;;;;;;;4954851;28;19926;-65
2021/03/18 09:23:02;;;;;;;;;;;;;;;;;;4965384;28;20014;-66
2021/03/18 09:25:28;;;;;;;;;;;;;;;;;;4952936;28;19926;-64
2021/03/18 09:27:55;;;;;;;;;;;;;;;;;;4950813;28;19927;-63
2021/03/18 09:30:21;;;;;;;;;;;;;;;;;;4960262;28;20036;-64
2021/03/18 09:32:48;;;;;;;;;;;;;;;;;;4963408;28;19931;-65
2021/03/18 09:35:14;;;;;;;;;;;;;;;;;;4957237;28;19989;-64
2021/03/18 09:37:43;;;;;;;;;;;;;;;;;;4965284;28;20022;-69
2021/03/18 09:40:09;;;;;;;;;;;;;;;;;;4957995;28;20343;-66
2021/03/18 09:42:36;;;;;;;;;;;;;;;;;;4956117;28;20367;-64
2021/03/18 09:45:03;;;;;;;;;;;;;;;;;;4954924;28;19996;-67
2021/03/18 09:47:29;;;;;;;;;;;;;;;;;;4957121;28;19926;-64
2021/03/18 09:49:56;;;;;;;;;;;;;;;;;;4973814;23;20297;-67
2021/03/18 09:52:25;;;;;;;;;;;;;;;;;;4950586;28;19932;-65
2021/03/18 09:54:53;;;;;;;;;;;;;;;;;;4940836;28;20401;-65
2021/03/18 09:57:19;;;;;;;;;;;;;;;;;;4947352;28;20013;-65
2021/03/18 09:59:46;;;;;;;;;;;;;;;;;;4950549;28;19927;-67
2021/03/18 10:02:12;;;;;;;;;;;;;;;;;;4937362;29;19933;-67
2021/03/18 10:04:39;;;;;;;;;;;;;;;;;;4933513;29;20286;-67
2021/03/18 10:07:05;;;;;;;;;;;;;;;;;;4932741;29;20328;-65
2021/03/18 10:09:32;;;;;;;;;;;;;;;;;;4933413;29;19927;-65
2021/03/18 10:11:58;;;;;;;;;;;;;;;;;;4945001;29;19978;-66
2021/03/18 10:14:25;;;;;;;;;;;;;;;;;;4936614;29;20015;-65
2021/03/18 10:16:51;;;;;;;;;;;;;;;;;;4936321;29;19927;-64
2021/03/18 10:19:18;;;;;;;;;;;;;;;;;;4950426;29;19935;-65
2021/03/18 10:21:44;;;;;;;;;;;;;;;;;;4950500;28;20013;-67
2021/03/18 10:24:11;;;;;;;;;;;;;;;;;;4950739;28;20031;-67
2021/03/18 10:26:37;;;;;;;;;;;;;;;;;;4942175;28;20463;-65
2021/03/18 10:29:04;;;;;;;;;;;;;;;;;;4928615;29;19970;-66
2021/03/18 10:31:31;;;;;;;;;;;;;;;;;;4940166;29;19933;-64
2021/03/18 10:33:58;;;;;;;;;;;;;;;;;;4950556;28;20472;-64
2021/03/18 10:36:24;;;;;;;;;;;;;;;;;;4943219;28;19931;-66
2021/03/18 10:38:51;;;;;;;;;;;;;;;;;;4934391;29;20045;-65
2021/03/18 10:41:17;;;;;;;;;;;;;;;;;;4938637;28;20446;-66
2021/03/18 10:43:44;;;;;;;;;;;;;;;;;;4936902;29;19941;-66
2021/03/18 10:46:10;;;;;;;;;;;;;;;;;;4933560;29;19949;-66
2021/03/18 10:48:37;;;;;;;;;;;;;;;;;;4939074;29;19927;-66
2021/03/18 10:51:03;;;;;;;;;;;;;;;;;;4940463;28;19935;-67
2021/03/18 10:53:32;;;;;;;;;;;;;;;;;;4945758;28;20364;-65
2021/03/18 10:55:59;;;;;;;;;;;;;;;;;;4936656;28;20018;-65
2021/03/18 10:58:25;;;;;;;;;;;;;;;;;;4932305;29;19993;-66
2021/03/18 11:00:52;;;;;;;;;;;;;;;;;;4932212;29;19962;-66
2021/03/18 11:03:18;;;;;;;;;;;;;;;;;;4928769;29;19927;-66
2021/03/18 11:05:45;;;;;;;;;;;;;;;;;;4943099;28;20009;-66
2021/03/18 11:08:11;;;;;;;;;;;;;;;;;;4946545;28;20457;-66
2021/03/18 11:10:38;;;;;;;;;;;;;;;;;;4947904;29;19933;-65
2021/03/18 11:13:05;;;;;;;;;;;;;;;;;;4951694;28;20383;-66
2021/03/18 11:15:31;;;;;;;;;;;;;;;;;;4938561;29;19927;-66
2021/03/18 11:17:58;;;;;;;;;;;;;;;;;;4945861;28;19992;-65
2021/03/18 11:20:24;;;;;;;;;;;;;;;;;;4940620;28;19930;-66
2021/03/18 11:22:51;;;;;;;;;;;;;;;;;;4948931;28;20395;-66
2021/03/18 11:25:17;;;;;;;;;;;;;;;;;;4934301;29;19936;-65
2021/03/18 11:27:44;;;;;;;;;;;;;;;;;;4949467;28;19927;-64
2021/03/18 11:30:10;;;;;;;;;;;;;;;;;;4941143;28;20006;-66
2021/03/18 11:32:37;;;;;;;;;;;;;;;;;;4942925;28;20013;-66
2021/03/18 11:35:03;;;;;;;;;;;;;;;;;;4937642;29;19966;-66
2021/03/18 11:37:30;;;;;;;;;;;;;;;;;;4936406;29;20017;-66
2021/03/18 11:39:56;;;;;;;;;;;;;;;;;;4940114;28;19927;-66
2021/03/18 11:42:23;;;;;;;;;;;;;;;;;;4944874;28;19937;-66
2021/03/18 11:44:49;;;;;;;;;;;;;;;;;;4942910;28;20355;-67
2021/03/18 11:47:16;;;;;;;;;;;;;;;;;;4934599;28;20018;-66
2021/03/18 11:49:42;;;;;;;;;;;;;;;;;;4946063;28;19926;-67
2021/03/18 11:52:09;;;;;;;;;;;;;;;;;;4938150;29;20394;-66
2021/03/18 11:54:35;;;;;;;;;;;;;;;;;;4941911;28;19974;-66
2021/03/18 11:57:02;;;;;;;;;;;;;;;;;;4862958;29;21078;-67
2021/03/18 11:59:28;;;;;;;;;;;;;;;;;;4853469;28;19938;-66
2021/03/18 12:01:55;;;;;;;;;;;;;;;;;;4881870;29;20346;-67
2021/03/18 12:04:21;;;;;;;;;;;;;;;;;;4936437;29;20029;-67
2021/03/18 12:06:48;;;;;;;;;;;;;;;;;;4942168;29;19934;-65
2021/03/18 12:09:14;;;;;;;;;;;;;;;;;;4949356;28;19944;-65
2021/03/18 12:11:41;;;;;;;;;;;;;;;;;;4942237;29;20025;-65
2021/03/18 12:14:07;;;;;;;;;;;;;;;;;;4937941;29;20490;-65
2021/03/18 12:16:34;;;;;;;;;;;;;;;;;;4944515;28;20066;-65
2021/03/18 12:19:00;;;;;;;;;;;;;;;;;;4941096;28;20025;-65
2021/03/18 12:21:27;;;;;;;;;;;;;;;;;;4935539;29;20438;-65
2021/03/18 12:23:53;;;;;;;;;;;;;;;;;;4932912;29;20013;-66
2021/03/18 12:26:19;;;;;;;;;;;;;;;;;;4858779;29;20411;-66
2021/03/18 12:28:46;;;;;;;;;;;;;;;;;;4928283;29;19927;-66
2021/03/18 12:31:12;;;;;;;;;;;;;;;;;;4939785;28;19931;-65
2021/03/18 12:33:39;;;;;;;;;;;;;;;;;;4942978;28;20070;-66
2021/03/18 12:36:05;;;;;;;;;;;;;;;;;;4938467;28;20383;-65
2021/03/18 12:38:32;;;;;;;;;;;;;;;;;;4942637;29;19976;-65
2021/03/18 12:40:58;;;;;;;;;;;;;;;;;;4922715;29;19958;-65
2021/03/18 12:43:25;;;;;;;;;;;;;;;;;;4932727;29;20021;-66
2021/03/18 12:45:51;;;;;;;;;;;;;;;;;;4933269;29;19927;-66
2021/03/18 12:48:18;;;;;;;;;;;;;;;;;;4922963;29;20434;-66
2021/03/18 12:50:44;;;;;;;;;;;;;;;;;;4926648;29;20025;-66
2021/03/18 12:53:11;;;;;;;;;;;;;;;;;;4927628;28;20498;-66
2021/03/18 12:55:37;;;;;;;;;;;;;;;;;;4928615;29;19930;-66
2021/03/18 12:58:04;;;;;;;;;;;;;;;;;;4922968;29;20030;-66
2021/03/18 13:00:30;;;;;;;;;;;;;;;;;;4878616;28;20498;-65
2021/03/18 13:02:57;;;;;;;;;;;;;;;;;;4840598;29;20429;-64
2021/03/18 13:05:23;;;;;;;;;;;;;;;;;;4907612;29;20025;-66
2021/03/18 13:07:50;;;;;;;;;;;;;;;;;;4930404;29;20379;-66
2021/03/18 13:10:16;;;;;;;;;;;;;;;;;;4926070;29;19962;-66
2021/03/18 13:12:43;;;;;;;;;;;;;;;;;;4930374;29;19956;-65
2021/03/18 13:15:09;;;;;;;;;;;;;;;;;;4927046;29;19988;-65
2021/03/18 13:17:36;;;;;;;;;;;;;;;;;;4878792;29;19990;-65
2021/03/18 13:20:02;;;;;;;;;;;;;;;;;;4922957;29;19931;-65
2021/03/18 13:22:29;;;;;;;;;;;;;;;;;;4929522;29;20021;-66
2021/03/18 13:24:55;;;;;;;;;;;;;;;;;;4933019;29;20023;-66
2021/03/18 13:27:22;;;;;;;;;;;;;;;;;;4927091;29;19962;-64
2021/03/18 13:29:48;;;;;;;;;;;;;;;;;;4925433;29;20347;-66
2021/03/18 13:32:15;;;;;;;;;;;;;;;;;;4928597;29;20449;-66
2021/03/18 13:34:41;;;;;;;;;;;;;;;;;;4930693;28;19927;-65
2021/03/18 13:37:08;;;;;;;;;;;;;;;;;;4929969;29;20014;-66
2021/03/18 13:39:35;;;;;;;;;;;;;;;;;;4929096;29;19958;-67
2021/03/18 13:42:01;;;;;;;;;;;;;;;;;;4925553;29;20354;-66
2021/03/18 13:44:28;;;;;;;;;;;;;;;;;;4933151;29;19942;-66
2021/03/18 13:46:54;;;;;;;;;;;;;;;;;;4933232;29;20383;-66
2021/03/18 13:49:21;;;;;;;;;;;;;;;;;;4924429;29;20355;-65
2021/03/18 13:51:50;;;;;;;;;;;;;;;;;;4932851;29;20378;-66
2021/03/18 13:54:17;;;;;;;;;;;;;;;;;;4940534;29;19966;-64
2021/03/18 13:56:44;;;;;;;;;;;;;;;;;;4950888;29;20275;-66
2021/03/18 13:59:11;;;;;;;;;;;;;;;;;;4931382;29;20237;-68
2021/03/18 14:01:38;;;;;;;;;;;;;;;;;;4927914;29;19927;-66
2021/03/18 14:04:04;;;;;;;;;;;;;;;;;;4937774;29;19931;-66
2021/03/18 14:06:31;;;;;;;;;;;;;;;;;;4945405;29;20395;-66
2021/03/18 14:08:57;;;;;;;;;;;;;;;;;;4932663;29;20398;-66
2021/03/18 14:11:24;;;;;;;;;;;;;;;;;;4946850;28;20014;-66
2021/03/18 14:13:50;;;;;;;;;;;;;;;;;;4942167;28;19927;-67
2021/03/18 14:16:17;;;;;;;;;;;;;;;;;;4941397;29;20014;-67
2021/03/18 14:18:43;;;;;;;;;;;;;;;;;;4942365;28;19978;-66
2021/03/18 14:21:10;;;;;;;;;;;;;;;;;;4941588;28;20122;-65
2021/03/18 14:23:36;;;;;;;;;;;;;;;;;;4948687;28;20291;-66
2021/03/18 14:26:03;;;;;;;;;;;;;;;;;;4945126;29;20326;-66
2021/03/18 14:28:29;;;;;;;;;;;;;;;;;;4931340;29;19977;-67
2021/03/18 14:30:56;;;;;;;;;;;;;;;;;;4945170;28;20322;-66
2021/03/18 14:33:22;;;;;;;;;;;;;;;;;;4941694;29;19978;-67
2021/03/18 14:35:49;;;;;;;;;;;;;;;;;;4952289;28;19926;-66
2021/03/18 14:38:15;;;;;;;;;;;;;;;;;;4945100;28;19935;-66
2021/03/18 14:40:42;;;;;;;;;;;;;;;;;;4945119;28;19926;-67
2021/03/18 14:43:08;;;;;;;;;;;;;;;;;;4942927;29;19926;-67
2021/03/18 14:45:35;;;;;;;;;;;;;;;;;;4937019;28;20022;-68
2021/03/18 14:48:01;;;;;;;;;;;;;;;;;;4938926;29;20032;-68
2021/03/18 14:50:28;;;;;;;;;;;;;;;;;;4942261;28;19933;-68
2021/03/18 14:52:55;;;;;;;;;;;;;;;;;;4940960;28;20021;-68
2021/03/18 14:55:21;;;;;;;;;;;;;;;;;;4934355;29;19966;-68
2021/03/18 14:57:48;;;;;;;;;;;;;;;;;;4927152;29;19926;-68
2021/03/18 15:00:14;;;;;;;;;;;;;;;;;;4933207;29;19927;-68
2021/03/18 15:02:41;;;;;;;;;;;;;;;;;;4932077;29;19962;-68
2021/03/18 15:05:07;;;;;;;;;;;;;;;;;;4934169;29;20021;-67
2021/03/18 15:07:34;;;;;;;;;;;;;;;;;;4932267;29;19970;-68
2021/03/18 15:10:00;;;;;;;;;;;;;;;;;;4932129;29;19998;-67
2021/03/18 15:12:27;;;;;;;;;;;;;;;;;;4935133;29;19974;-67
2021/03/18 15:14:53;;;;;;;;;;;;;;;;;;4931340;29;20001;-68
2021/03/18 15:17:20;;;;;;;;;;;;;;;;;;4935182;29;19930;-68
2021/03/18 15:19:46;;;;;;;;;;;;;;;;;;4934826;29;20001;-68
2021/03/18 15:22:13;;;;;;;;;;;;;;;;;;4933014;29;20011;-68
2021/03/18 15:24:39;;;;;;;;;;;;;;;;;;4933724;29;19941;-68
2021/03/18 15:27:06;;;;;;;;;;;;;;;;;;4934973;29;19965;-68
2021/03/18 15:29:32;;;;;;;;;;;;;;;;;;4930895;29;20030;-68
2021/03/18 15:31:59;;;;;;;;;;;;;;;;;;4930744;29;20383;-68
2021/03/18 15:34:25;;;;;;;;;;;;;;;;;;4933797;29;19974;-67
2021/03/18 15:36:52;;;;;;;;;;;;;;;;;;4930049;29;19945;-69
2021/03/18 15:39:18;;;;;;;;;;;;;;;;;;4931794;29;19927;-68
2021/03/18 15:41:45;;;;;;;;;;;;;;;;;;4932579;29;19927;-67
2021/03/18 15:44:11;;;;;;;;;;;;;;;;;;4930903;29;19996;-68
2021/03/18 15:46:38;;;;;;;;;;;;;;;;;;4928272;29;19927;-68
2021/03/18 15:49:04;;;;;;;;;;;;;;;;;;4929678;29;19935;-68
2021/03/18 15:51:34;;;;;;;;;;;;;;;;;;4927905;29;19930;-65
2021/03/18 15:54:00;;;;;;;;;;;;;;;;;;4928527;29;20438;-64
2021/03/18 15:56:27;;;;;;;;;;;;;;;;;;4932237;29;20415;-65
2021/03/18 15:58:53;;;;;;;;;;;;;;;;;;4930695;29;20383;-65
2021/03/18 16:01:20;;;;;;;;;;;;;;;;;;4929722;29;20450;-68
2021/03/18 16:03:46;;;;;;;;;;;;;;;;;;4927906;29;20392;-67
2021/03/18 16:06:13;;;;;;;;;;;;;;;;;;4930913;28;19928;-67
2021/03/18 16:08:39;;;;;;;;;;;;;;;;;;4928388;29;19927;-67
2021/03/18 16:11:06;;;;;;;;;;;;;;;;;;4926844;29;20021;-67
2021/03/18 16:13:33;;;;;;;;;;;;;;;;;;4928315;29;19931;-67
2021/03/18 16:15:59;;;;;;;;;;;;;;;;;;4934239;29;19954;-67
2021/03/18 16:18:26;;;;;;;;;;;;;;;;;;4936455;29;19926;-67
2021/03/18 16:20:52;;;;;;;;;;;;;;;;;;4931951;28;19931;-67
2021/03/18 16:23:19;;;;;;;;;;;;;;;;;;4932282;29;19931;-67
2021/03/18 16:25:46;;;;;;;;;;;;;;;;;;4928327;29;20403;-67
2021/03/18 16:28:12;;;;;;;;;;;;;;;;;;4930022;29;20454;-67
2021/03/18 16:30:39;;;;;;;;;;;;;;;;;;4930445;29;19926;-67
2021/03/18 16:33:05;;;;;;;;;;;;;;;;;;4933960;29;19927;-67
2021/03/18 16:35:32;;;;;;;;;;;;;;;;;;4931975;29;19983;-67
2021/03/18 16:37:58;;;;;;;;;;;;;;;;;;4936579;29;20415;-66
2021/03/18 16:40:25;;;;;;;;;;;;;;;;;;4933348;29;20378;-67